Time;durP1;ratioP1;P1;durP2;ratioP2;P2;SDS_P1;SDS_P2;PMS_P1;PMS_P2;Temp;Humidity;BMP_temperature;BMP_pressure;BME280_temperature;BME280_humidity;BME280_pressure;Samples;Min_cycle;Max_cycle;Signal;HPM_P1;HPM_P2
2021/04/22 00:02:01;;;;;;;2.53;2.33;;;25.60;31.40;;;;;;5168493;27;20444;-40
2021/04/22 00:04:31;;;;;;;3.53;2.97;;;25.60;31.90;;;;;;5168897;27;20454;-40
2021/04/22 00:07:01;;;;;;;3.03;2.80;;;25.70;31.90;;;;;;5169273;27;20431;-37
2021/04/22 00:09:31;;;;;;;3.47;3.17;;;25.70;31.70;;;;;;5164767;27;20448;-38
2021/04/22 00:12:03;;;;;;;3.07;2.80;;;25.70;31.50;;;;;;5167615;27;20447;-37
2021/04/22 00:14:33;;;;;;;3.43;3.13;;;25.60;31.40;;;;;;5168910;27;20514;-39
2021/04/22 00:17:05;;;;;;;3.73;3.10;;;25.60;31.30;;;;;;5166866;27;20444;-38
2021/04/22 00:19:35;;;;;;;4.20;2.80;;;25.70;33.20;;;;;;5168317;27;20585;-35
2021/04/22 00:22:06;;;;;;;2.83;2.63;;;25.60;32.50;;;;;;5163252;27;20452;-38
2021/04/22 00:24:36;;;;;;;4.20;3.00;;;25.60;31.50;;;;;;5158023;27;20607;-36
2021/04/22 00:27:08;;;;;;;3.00;2.80;;;25.40;32.40;;;;;;5146499;27;20451;-35
2021/04/22 00:29:37;;;;;;;3.10;2.90;;;25.40;33.00;;;;;;5155683;27;20429;-33
2021/04/22 00:32:08;;;;;;;2.90;2.70;;;25.30;32.50;;;;;;5146854;27;20441;-37
2021/04/22 00:34:38;;;;;;;3.27;3.00;;;25.20;32.70;;;;;;5147258;27;20494;-37
2021/04/22 00:37:08;;;;;;;3.30;3.07;;;25.10;34.30;;;;;;5146630;27;20516;-35
2021/04/22 00:39:39;;;;;;;3.10;2.90;;;25.00;33.10;;;;;;5148751;27;20445;-39
2021/04/22 00:42:11;;;;;;;3.93;2.80;;;24.90;33.40;;;;;;5151231;27;21261;-33
2021/04/22 00:44:46;;;;;;;3.20;3.00;;;24.80;34.30;;;;;;5153050;27;20936;-37
2021/04/22 00:47:17;;;;;;;3.73;3.50;;;24.70;35.10;;;;;;5154387;27;20444;-34
2021/04/22 00:49:48;;;;;;;4.00;3.10;;;24.60;34.90;;;;;;5158514;27;20445;-34
2021/04/22 00:52:18;;;;;;;4.50;3.20;;;24.40;35.80;;;;;;5156558;27;20443;-35
2021/04/22 00:54:49;;;;;;;5.30;3.50;;;24.40;36.70;;;;;;5164246;27;20483;-37
2021/04/22 00:57:20;;;;;;;3.93;3.50;;;24.40;37.20;;;;;;5160959;27;20448;-36
2021/04/22 00:59:50;;;;;;;4.03;3.73;;;24.40;37.80;;;;;;5156599;27;20609;-33
2021/04/22 01:02:20;;;;;;;4.57;4.10;;;24.30;38.80;;;;;;5147592;27;20460;-36
2021/04/22 01:04:51;;;;;;;3.93;3.07;;;24.20;38.90;;;;;;5161567;27;20444;-38
2021/04/22 01:07:21;;;;;;;4.50;3.33;;;24.10;38.70;;;;;;5165006;27;20481;-39
2021/04/22 01:09:51;;;;;;;3.30;2.93;;;24.00;39.00;;;;;;5166295;27;20459;-37
2021/04/22 01:12:22;;;;;;;5.27;3.40;;;23.90;38.50;;;;;;5165981;27;20444;-38
2021/04/22 01:14:52;;;;;;;3.67;3.03;;;24.00;38.50;;;;;;5166241;27;20525;-38
2021/04/22 01:17:22;;;;;;;3.57;3.17;;;23.90;38.60;;;;;;5166301;27;20444;-38
2021/04/22 01:19:52;;;;;;;4.20;3.50;;;23.80;38.90;;;;;;5166640;27;20987;-37
2021/04/22 01:22:24;;;;;;;4.20;3.73;;;23.80;39.50;;;;;;5166168;27;20448;-38
2021/04/22 01:24:54;;;;;;;3.70;3.40;;;23.60;40.10;;;;;;5166217;27;20480;-38
2021/04/22 01:27:24;;;;;;;3.50;3.20;;;23.60;40.00;;;;;;5165744;27;20496;-38
2021/04/22 01:29:54;;;;;;;3.73;3.10;;;23.60;40.40;;;;;;5162212;27;20444;-37
2021/04/22 01:32:24;;;;;;;4.03;3.60;;;23.50;39.40;;;;;;5166544;27;20824;-38
2021/04/22 01:34:54;;;;;;;3.70;3.40;;;23.40;40.00;;;;;;5166032;27;20471;-38
2021/04/22 01:37:25;;;;;;;4.40;3.57;;;23.20;40.60;;;;;;5165291;27;20440;-37
2021/04/22 01:39:56;;;;;;;3.90;3.37;;;23.00;41.50;;;;;;5157457;27;20474;-39
2021/04/22 01:42:26;;;;;;;4.37;3.97;;;22.90;42.00;;;;;;5157018;27;20844;-39
2021/04/22 01:44:57;;;;;;;4.20;3.80;;;22.90;43.20;;;;;;5165895;27;20470;-38
2021/04/22 01:47:27;;;;;;;3.70;3.50;;;22.90;42.40;;;;;;5164822;27;20444;-37
2021/04/22 01:49:57;;;;;;;4.37;3.73;;;22.80;43.20;;;;;;5166118;27;20887;-37
2021/04/22 01:52:29;;;;;;;4.37;3.97;;;22.70;43.50;;;;;;5165387;27;20414;-39
2021/04/22 01:54:59;;;;;;;4.60;4.23;;;22.60;43.80;;;;;;5165313;27;20556;-36
2021/04/22 01:57:29;;;;;;;4.30;4.00;;;22.50;44.20;;;;;;5160878;27;20414;-39
2021/04/22 01:59:59;;;;;;;4.33;3.73;;;22.50;44.60;;;;;;5165422;27;20423;-36
2021/04/22 02:02:29;;;;;;;4.30;4.00;;;22.40;45.20;;;;;;5165705;27;20477;-37
2021/04/22 02:04:59;;;;;;;5.60;3.50;;;22.30;45.50;;;;;;5165761;27;20492;-38
2021/04/22 02:07:30;;;;;;;4.50;4.10;;;22.00;45.90;;;;;;5164927;27;20479;-39
2021/04/22 02:10:00;;;;;;;5.20;4.27;;;22.00;46.20;;;;;;5164966;27;20842;-38
2021/04/22 02:12:30;;;;;;;3.90;3.60;;;21.90;46.80;;;;;;5164545;27;20407;-38
2021/04/22 02:15:00;;;;;;;4.00;3.50;;;21.80;47.40;;;;;;5166157;27;20476;-39
2021/04/22 02:17:30;;;;;;;4.50;4.10;;;21.80;47.20;;;;;;5165053;27;20838;-39
2021/04/22 02:20:01;;;;;;;4.20;3.67;;;21.70;47.30;;;;;;5165894;27;20449;-39
2021/04/22 02:22:32;;;;;;;5.60;4.20;;;21.60;47.80;;;;;;5165590;27;20962;-37
2021/04/22 02:25:03;;;;;;;4.67;3.60;;;21.50;48.00;;;;;;5165022;27;20539;-39
2021/04/22 02:27:33;;;;;;;6.13;4.00;;;21.40;48.00;;;;;;5164471;27;20851;-40
2021/04/22 02:30:06;;;;;;;4.90;3.80;;;21.30;48.60;;;;;;5165010;27;20427;-40
2021/04/22 02:32:36;;;;;;;4.67;4.27;;;21.20;48.70;;;;;;5165476;27;20468;-39
2021/04/22 02:35:07;;;;;;;6.20;4.20;;;21.10;49.30;;;;;;5164759;27;20475;-39
2021/04/22 02:37:39;;;;;;;4.63;4.23;;;21.10;49.50;;;;;;5164774;27;20440;-38
2021/04/22 02:40:10;;;;;;;5.90;4.53;;;21.00;49.70;;;;;;5164860;27;20427;-41
2021/04/22 02:42:41;;;;;;;4.73;4.33;;;20.90;50.20;;;;;;5164082;27;20529;-37
2021/04/22 02:45:17;;;;;;;3.90;3.60;;;20.90;49.70;;;;;;5164490;27;20457;-39
2021/04/22 02:47:48;;;;;;;3.97;3.70;;;20.80;50.50;;;;;;5164415;27;20440;-38
2021/04/22 02:50:20;;;;;;;4.17;3.87;;;20.70;50.30;;;;;;5164882;27;20931;-35
2021/04/22 02:52:51;;;;;;;5.43;4.27;;;20.60;50.70;;;;;;5163866;27;20481;-36
2021/04/22 02:55:22;;;;;;;4.40;4.00;;;20.50;50.50;;;;;;5164582;27;20446;-36
2021/04/22 02:58:12;;;;;;;4.10;3.70;;;20.40;50.90;;;;;;5163800;27;20439;-40
2021/04/22 03:00:44;;;;;;;5.03;3.90;;;20.30;50.80;;;;;;5164738;27;20411;-36
2021/04/22 03:03:14;;;;;;;4.80;4.30;;;20.30;51.10;;;;;;5164251;27;20492;-34
2021/04/22 03:05:44;;;;;;;4.47;4.03;;;20.10;51.40;;;;;;5157155;27;20460;-38
2021/04/22 03:08:15;;;;;;;4.30;3.90;;;20.10;51.30;;;;;;5163194;27;20560;-36
2021/04/22 03:10:46;;;;;;;4.40;4.00;;;20.00;51.00;;;;;;5149460;27;20921;-38
2021/04/22 03:13:16;;;;;;;4.23;3.60;;;19.90;51.30;;;;;;5163783;27;20422;-36
2021/04/22 03:15:46;;;;;;;4.03;3.50;;;19.80;51.90;;;;;;5164715;27;20476;-38
2021/04/22 03:18:16;;;;;;;4.67;3.97;;;19.70;52.20;;;;;;5161767;27;20452;-35
2021/04/22 03:20:47;;;;;;;5.23;4.73;;;19.60;52.60;;;;;;5163337;27;20423;-35
2021/04/22 03:23:18;;;;;;;5.90;4.17;;;19.50;52.90;;;;;;5164018;27;21107;-38
2021/04/22 03:25:48;;;;;;;4.20;3.90;;;19.50;52.40;;;;;;5163075;27;20489;-37
2021/04/22 03:28:18;;;;;;;4.43;3.80;;;19.40;53.20;;;;;;5162068;27;20456;-39
2021/04/22 03:30:48;;;;;;;5.67;4.27;;;19.30;53.70;;;;;;5164094;27;20469;-38
2021/04/22 03:33:18;;;;;;;6.03;3.63;;;19.20;53.50;;;;;;5163541;27;20451;-36
2021/04/22 03:35:48;;;;;;;5.13;4.60;;;19.10;53.60;;;;;;5164415;27;21003;-39
2021/04/22 03:38:19;;;;;;;4.13;3.73;;;19.10;53.70;;;;;;5163144;27;20489;-36
2021/04/22 03:40:49;;;;;;;5.30;4.10;;;19.00;53.70;;;;;;5164403;27;20945;-36
2021/04/22 03:43:20;;;;;;;4.27;3.80;;;19.00;53.90;;;;;;5163462;27;20520;-39
2021/04/22 03:45:50;;;;;;;4.57;4.17;;;18.90;54.00;;;;;;5163897;27;20455;-38
2021/04/22 03:48:20;;;;;;;5.23;4.73;;;18.90;54.00;;;;;;5159633;27;20440;-37
2021/04/22 03:50:50;;;;;;;5.93;4.40;;;18.80;53.70;;;;;;5159172;27;20444;-38
2021/04/22 03:53:21;;;;;;;5.33;4.83;;;18.70;53.80;;;;;;5163272;27;20444;-37
2021/04/22 03:55:52;;;;;;;4.60;3.90;;;18.60;54.10;;;;;;5163832;27;20468;-34
2021/04/22 03:58:22;;;;;;;4.27;3.90;;;18.50;54.70;;;;;;5157408;27;20573;-34
2021/04/22 04:00:52;;;;;;;4.73;4.33;;;18.50;54.70;;;;;;5163649;27;20571;-34
2021/04/22 04:03:22;;;;;;;5.27;4.77;;;18.40;54.90;;;;;;5162971;27;20500;-34
2021/04/22 04:05:52;;;;;;;4.80;4.23;;;18.30;55.40;;;;;;5164199;27;20466;-34
2021/04/22 04:08:23;;;;;;;5.70;4.30;;;18.20;56.10;;;;;;5163902;27;20444;-38
2021/04/22 04:10:53;;;;;;;6.00;4.53;;;18.10;55.90;;;;;;5163645;27;20428;-37
2021/04/22 04:13:23;;;;;;;4.43;4.07;;;18.10;55.80;;;;;;5159822;27;20584;-38
2021/04/22 04:15:53;;;;;;;6.50;4.40;;;18.00;56.70;;;;;;5163430;27;20471;-38
2021/04/22 04:18:23;;;;;;;5.00;4.20;;;17.90;56.70;;;;;;5162840;27;20448;-36
2021/04/22 04:20:54;;;;;;;4.27;3.87;;;17.80;56.60;;;;;;5165451;27;20980;-37
2021/04/22 04:23:25;;;;;;;7.90;4.70;;;17.80;57.10;;;;;;5166384;27;20579;-35
2021/04/22 04:25:56;;;;;;;5.23;4.20;;;17.80;57.20;;;;;;5158678;27;20444;-38
2021/04/22 04:28:26;;;;;;;6.33;5.13;;;17.70;57.50;;;;;;5165081;27;20448;-38
2021/04/22 04:30:56;;;;;;;5.07;4.30;;;17.60;57.90;;;;;;5167032;27;20448;-37
2021/04/22 04:33:26;;;;;;;6.23;4.50;;;17.60;58.20;;;;;;5166988;27;20452;-37
2021/04/22 04:35:56;;;;;;;5.20;4.30;;;17.50;58.50;;;;;;5166602;27;20535;-37
2021/04/22 04:38:27;;;;;;;4.70;4.27;;;17.40;58.80;;;;;;5167280;27;20458;-38
2021/04/22 04:40:57;;;;;;;6.20;4.30;;;17.30;59.60;;;;;;5165868;27;20475;-35
2021/04/22 04:43:28;;;;;;;6.43;4.40;;;17.20;60.30;;;;;;5165531;27;20467;-31
2021/04/22 04:45:58;;;;;;;4.93;4.43;;;17.10;61.10;;;;;;5166511;27;20452;-36
2021/04/22 04:48:28;;;;;;;5.50;4.57;;;17.10;61.70;;;;;;5162586;27;20500;-37
2021/04/22 04:50:58;;;;;;;5.00;4.60;;;16.90;63.00;;;;;;5165949;27;20451;-33
2021/04/22 04:53:29;;;;;;;4.70;4.27;;;16.80;63.70;;;;;;5166501;27;20939;-36
2021/04/22 04:55:59;;;;;;;4.90;4.40;;;16.80;64.80;;;;;;5164852;27;20524;-39
2021/04/22 04:58:36;;;;;;;5.47;4.90;;;16.70;65.00;;;;;;5166029;27;20436;-37
2021/04/22 05:01:06;;;;;;;5.27;4.77;;;16.60;66.00;;;;;;5166425;27;20452;-35
2021/04/22 05:03:36;;;;;;;5.13;4.63;;;16.60;66.70;;;;;;5166050;27;20500;-38
2021/04/22 05:06:06;;;;;;;8.60;5.63;;;16.50;68.00;;;;;;5166812;27;20436;-38
2021/04/22 05:08:38;;;;;;;5.87;5.27;;;16.50;68.00;;;;;;5166198;27;20432;-37
2021/04/22 05:11:08;;;;;;;7.27;5.43;;;16.30;68.70;;;;;;5166437;27;20448;-37
2021/04/22 05:13:38;;;;;;;6.20;5.50;;;16.20;69.90;;;;;;5165860;27;20492;-38
2021/04/22 05:16:08;;;;;;;7.00;5.40;;;16.20;71.00;;;;;;5166326;27;20484;-36
2021/04/22 05:18:39;;;;;;;9.03;5.90;;;16.10;71.90;;;;;;5165697;27;20473;-33
2021/04/22 05:21:09;;;;;;;6.23;5.33;;;16.00;73.40;;;;;;5166124;27;20931;-37
2021/04/22 05:23:40;;;;;;;9.90;6.23;;;16.00;74.10;;;;;;5166540;27;20432;-36
2021/04/22 05:26:11;;;;;;;6.30;5.30;;;16.00;74.80;;;;;;5166416;27;20500;-35
2021/04/22 05:28:41;;;;;;;10.30;5.90;;;15.90;75.60;;;;;;5165602;27;20618;-35
2021/04/22 05:31:12;;;;;;;6.73;6.00;;;15.80;77.50;;;;;;5165193;27;20547;-36
2021/04/22 05:33:42;;;;;;;7.80;5.57;;;15.70;78.90;;;;;;5165706;27;20440;-34
2021/04/22 05:36:13;;;;;;;10.03;5.77;;;15.70;80.30;;;;;;5165612;27;20498;-34
2021/04/22 05:38:44;;;;;;;6.80;6.10;;;15.60;81.20;;;;;;5165977;27;20456;-35
2021/04/22 05:41:25;;;;;;;9.00;6.43;;;15.50;82.90;;;;;;5165633;27;20919;-37
2021/04/22 05:43:55;;;;;;;8.97;5.87;;;15.50;84.50;;;;;;5165575;27;20479;-38
2021/04/22 05:46:26;;;;;;;7.50;6.30;;;15.30;86.00;;;;;;5165919;27;20519;-32
2021/04/22 05:48:56;;;;;;;7.87;6.20;;;15.30;87.50;;;;;;5165785;27;20448;-34
2021/04/22 05:51:27;;;;;;;8.43;6.00;;;15.30;88.40;;;;;;5146957;27;20464;-33
2021/04/22 05:53:58;;;;;;;11.50;6.80;;;15.20;90.00;;;;;;5166577;27;20444;-37
2021/04/22 05:56:28;;;;;;;10.43;6.53;;;15.20;90.50;;;;;;5164615;27;20529;-38
2021/04/22 05:58:59;;;;;;;9.50;6.20;;;15.10;91.30;;;;;;5165957;27;20452;-37
2021/04/22 06:01:29;;;;;;;10.10;6.70;;;15.10;91.80;;;;;;5165010;27;20543;-34
2021/04/22 06:03:59;;;;;;;9.60;7.00;;;15.10;91.80;;;;;;5165242;27;20511;-38
2021/04/22 06:06:29;;;;;;;7.33;6.00;;;15.00;92.40;;;;;;5165895;27;20486;-38
2021/04/22 06:09:00;;;;;;;7.83;6.70;;;14.90;92.90;;;;;;5165591;27;20443;-36
2021/04/22 06:11:30;;;;;;;9.00;6.60;;;14.90;93.60;;;;;;5164922;27;20520;-38
2021/04/22 06:14:00;;;;;;;11.90;6.37;;;14.70;94.50;;;;;;5165044;27;20451;-38
2021/04/22 06:16:30;;;;;;;7.93;6.70;;;14.60;95.00;;;;;;5163974;27;20528;-37
2021/04/22 06:19:00;;;;;;;9.20;6.60;;;14.60;95.60;;;;;;5165466;27;20460;-38
2021/04/22 06:21:30;;;;;;;10.13;7.20;;;14.50;96.40;;;;;;5165568;27;20533;-35
2021/04/22 06:24:02;;;;;;;8.00;6.40;;;14.40;96.90;;;;;;5164958;27;20444;-38
2021/04/22 06:26:32;;;;;;;9.20;6.63;;;14.40;97.60;;;;;;5164444;27;20456;-36
2021/04/22 06:29:04;;;;;;;9.00;8.00;;;14.40;98.40;;;;;;5165761;27;20448;-33
2021/04/22 06:31:34;;;;;;;11.93;7.27;;;14.30;98.80;;;;;;5165079;27;20448;-37
2021/04/22 06:34:04;;;;;;;11.53;7.87;;;14.20;99.30;;;;;;5164307;27;20461;-36
2021/04/22 06:36:34;;;;;;;14.43;7.50;;;14.10;99.70;;;;;;5164454;27;20483;-35
2021/04/22 06:39:06;;;;;;;13.00;6.83;;;14.10;99.80;;;;;;5164958;27;20445;-32
2021/04/22 06:41:37;;;;;;;12.37;6.97;;;14.10;99.90;;;;;;5164365;27;20456;-38
2021/04/22 06:44:07;;;;;;;12.30;6.60;;;13.90;99.90;;;;;;5164630;27;20471;-35
2021/04/22 06:46:38;;;;;;;11.53;7.80;;;13.80;99.90;;;;;;5156361;27;20513;-37
2021/04/22 06:49:09;;;;;;;8.77;7.17;;;13.70;99.90;;;;;;5165645;27;20440;-33
2021/04/22 06:51:39;;;;;;;10.70;7.00;;;13.70;99.90;;;;;;5164842;27;20448;-36
2021/04/22 06:54:10;;;;;;;10.63;6.67;;;13.50;99.90;;;;;;5164851;27;20920;-36
2021/04/22 06:56:40;;;;;;;10.63;6.40;;;13.50;99.90;;;;;;5164093;27;20487;-34
2021/04/22 06:59:10;;;;;;;11.97;6.57;;;13.40;99.90;;;;;;5164610;27;20454;-36
2021/04/22 07:01:40;;;;;;;8.77;6.30;;;13.40;99.90;;;;;;5164154;27;20896;-36
2021/04/22 07:04:10;;;;;;;10.77;7.27;;;13.30;99.90;;;;;;5165026;27;20448;-33
2021/04/22 07:06:40;;;;;;;11.10;7.43;;;13.20;99.90;;;;;;5162741;27;20452;-36
2021/04/22 07:09:12;;;;;;;10.50;6.47;;;13.20;99.90;;;;;;5164706;27;20448;-36
2021/04/22 07:11:42;;;;;;;11.13;7.00;;;13.20;99.90;;;;;;5163740;27;20508;-37
2021/04/22 07:14:12;;;;;;;8.30;7.40;;;13.10;99.90;;;;;;5164259;27;20544;-35
2021/04/22 07:16:42;;;;;;;9.73;6.97;;;13.00;99.90;;;;;;5162157;27;20486;-34
2021/04/22 07:19:12;;;;;;;10.60;7.20;;;13.00;99.90;;;;;;5160716;27;20444;-37
2021/04/22 07:21:42;;;;;;;14.02;7.13;;;12.90;99.90;;;;;;5164525;27;20477;-35
2021/04/22 07:24:13;;;;;;;11.85;7.47;;;12.80;99.90;;;;;;5164317;27;20646;-37
2021/04/22 07:26:43;;;;;;;10.05;6.53;;;12.70;99.90;;;;;;5163615;27;20259;-36
2021/04/22 07:29:13;;;;;;;13.20;7.53;;;12.50;99.90;;;;;;5164406;27;20564;-34
2021/04/22 07:31:44;;;;;;;10.13;7.13;;;12.50;99.90;;;;;;5164661;27;20489;-34
2021/04/22 07:34:14;;;;;;;25.03;8.60;;;12.40;99.90;;;;;;5155497;27;20448;-34
2021/04/22 07:36:45;;;;;;;9.60;6.63;;;12.30;99.90;;;;;;5164069;27;20946;-33
2021/04/22 07:39:16;;;;;;;9.77;7.32;;;12.20;99.90;;;;;;5164163;27;20473;-34
2021/04/22 07:41:47;;;;;;;15.00;8.50;;;12.20;99.90;;;;;;5163817;27;20243;-35
2021/04/22 07:44:17;;;;;;;12.90;7.00;;;12.10;99.90;;;;;;5164491;27;20500;-36
2021/04/22 07:46:48;;;;;;;14.05;7.40;;;12.00;99.90;;;;;;5164622;27;20221;-38
2021/04/22 07:49:18;;;;;;;13.63;6.53;;;12.10;99.90;;;;;;5164597;27;20665;-35
2021/04/22 07:51:48;;;;;;;13.85;7.47;;;12.00;99.90;;;;;;5163157;27;20535;-33
2021/04/22 07:54:19;;;;;;;10.80;6.55;;;12.00;99.90;;;;;;5164550;27;20227;-37
2021/04/22 07:56:50;;;;;;;13.52;6.70;;;12.00;99.90;;;;;;5166708;27;20218;-33
2021/04/22 07:59:20;;;;;;;12.73;7.07;;;11.90;99.90;;;;;;5168480;27;20191;-35
2021/04/22 08:01:50;;;;;;;13.90;7.78;;;11.70;99.90;;;;;;5167692;27;20179;-37
2021/04/22 08:04:20;;;;;;;18.63;7.45;;;11.60;99.90;;;;;;5168654;27;20660;-31
2021/04/22 08:06:50;;;;;;;15.10;6.90;;;11.60;99.90;;;;;;5167343;27;20195;-37
2021/04/22 08:09:22;;;;;;;12.55;6.75;;;11.60;99.90;;;;;;5167761;27;20202;-35
2021/04/22 08:11:52;;;;;;;8.07;6.75;;;11.60;99.90;;;;;;5167579;27;20206;-36
2021/04/22 08:14:22;;;;;;;12.88;6.93;;;11.50;99.90;;;;;;5168748;27;20674;-36
2021/04/22 08:16:52;;;;;;;11.82;7.80;;;11.50;99.90;;;;;;5167268;27;20234;-34
2021/04/22 08:19:22;;;;;;;14.05;7.18;;;11.40;99.90;;;;;;5168043;27;20190;-37
2021/04/22 08:21:52;;;;;;;14.75;7.28;;;11.40;99.90;;;;;;5167834;27;20329;-37
2021/04/22 08:24:23;;;;;;;12.13;7.70;;;11.40;99.90;;;;;;5168287;27;20259;-37
2021/04/22 08:26:53;;;;;;;10.32;7.10;;;11.40;99.90;;;;;;5166344;27;20202;-35
2021/04/22 08:29:23;;;;;;;15.10;7.43;;;11.40;99.90;;;;;;5167003;27;20191;-35
2021/04/22 08:31:53;;;;;;;13.10;7.63;;;11.20;99.90;;;;;;5168006;27;20232;-37
2021/04/22 08:34:26;;;;;;;17.23;7.53;;;11.20;99.90;;;;;;5168149;27;20281;-36
2021/04/22 08:36:56;;;;;;;9.80;7.20;;;11.20;99.90;;;;;;5161505;27;20222;-34
2021/04/22 08:39:27;;;;;;;11.32;7.18;;;11.10;99.90;;;;;;5167272;27;20570;-35
2021/04/22 08:42:17;;;;;;;17.27;6.60;;;11.10;99.90;;;;;;5167270;27;20202;-34
2021/04/22 08:44:47;;;;;;;8.82;6.28;;;11.00;99.90;;;;;;5167344;27;20232;-36
2021/04/22 08:47:17;;;;;;;14.43;7.53;;;11.00;99.90;;;;;;5166534;27;20199;-37
2021/04/22 08:49:47;;;;;;;14.63;7.47;;;11.00;99.90;;;;;;5151020;27;20202;-37
2021/04/22 08:52:18;;;;;;;11.07;7.13;;;10.90;99.90;;;;;;5167180;27;20203;-34
2021/04/22 08:54:49;;;;;;;12.93;7.45;;;10.80;99.90;;;;;;5167927;27;20247;-38
2021/04/22 08:57:19;;;;;;;12.85;7.07;;;10.80;99.90;;;;;;5165771;27;20225;-38
2021/04/22 08:59:52;;;;;;;9.75;6.60;;;10.80;99.90;;;;;;5167392;27;20191;-35
2021/04/22 09:02:23;;;;;;;10.10;8.25;;;10.70;99.90;;;;;;5167103;27;20212;-32
2021/04/22 09:04:53;;;;;;;10.65;6.78;;;10.60;99.90;;;;;;5167051;27;20303;-38
2021/04/22 09:07:23;;;;;;;11.90;7.18;;;10.50;99.90;;;;;;5164853;27;20202;-37
2021/04/22 09:09:55;;;;;;;10.65;8.20;;;10.50;99.90;;;;;;5166928;27;20198;-37
2021/04/22 09:12:25;;;;;;;10.10;6.85;;;10.50;99.90;;;;;;5166454;27;20198;-35
2021/04/22 09:14:58;;;;;;;9.52;7.40;;;10.40;99.90;;;;;;5166283;27;20299;-33
2021/04/22 09:17:29;;;;;;;10.20;6.50;;;10.30;99.90;;;;;;5166720;27;20283;-38
2021/04/22 09:19:59;;;;;;;10.73;6.35;;;10.30;99.90;;;;;;5163294;27;20698;-36
2021/04/22 09:22:37;;;;;;;10.80;7.40;;;10.30;99.90;;;;;;5166049;27;20243;-36
2021/04/22 09:25:17;;;;;;;7.20;6.28;;;10.20;99.90;;;;;;5167208;27;20198;-35
2021/04/22 09:27:48;;;;;;;11.85;6.88;;;10.20;99.90;;;;;;5156429;27;20209;-32
2021/04/22 09:30:31;;;;;;;15.45;7.95;;;10.20;99.90;;;;;;5166747;27;20220;-37
2021/04/22 09:33:01;;;;;;;11.98;6.18;;;10.20;99.90;;;;;;5166614;27;20187;-37
2021/04/22 09:35:33;;;;;;;11.07;6.10;;;10.10;99.90;;;;;;5166597;27;20202;-38
2021/04/22 09:38:03;;;;;;;13.20;6.55;;;10.10;99.90;;;;;;5165470;27;20194;-36
2021/04/22 09:40:38;;;;;;;11.90;6.75;;;10.10;99.90;;;;;;5166283;27;20203;-38
2021/04/22 09:43:13;;;;;;;11.10;6.28;;;10.00;99.90;;;;;;5165442;27;20222;-33
2021/04/22 09:45:47;;;;;;;7.60;5.15;;;9.90;99.90;;;;;;5166152;27;20202;-37
2021/04/22 09:48:26;;;;;;;10.82;5.80;;;9.90;99.90;;;;;;5164954;27;20348;-38
2021/04/22 09:50:56;;;;;;;11.18;7.13;;;9.90;99.90;;;;;;5166625;27;20191;-35
2021/04/22 09:53:27;;;;;;;7.10;6.40;;;9.90;99.90;;;;;;5165543;27;20209;-31
2021/04/22 09:56:09;;;;;;;11.52;5.97;;;9.90;99.90;;;;;;5166290;27;20218;-37
2021/04/22 09:58:39;;;;;;;13.07;6.30;;;9.90;99.90;;;;;;5165472;27;20191;-32
2021/04/22 10:01:20;;;;;;;10.18;6.53;;;9.70;99.90;;;;;;5165105;27;20263;-32
2021/04/22 10:03:51;;;;;;;11.73;6.85;;;9.80;99.90;;;;;;5165863;27;20190;-36
2021/04/22 10:06:22;;;;;;;10.52;7.07;;;9.70;99.90;;;;;;5165159;27;20194;-34
2021/04/22 10:08:52;;;;;;;19.00;6.45;;;9.70;99.90;;;;;;5166321;27;20297;-36
2021/04/22 10:11:26;;;;;;;13.52;5.70;;;9.70;99.90;;;;;;5164658;27;20194;-36
2021/04/22 10:13:57;;;;;;;9.65;6.63;;;9.60;99.90;;;;;;5165798;27;20198;-35
2021/04/22 10:16:34;;;;;;;11.80;6.20;;;9.50;99.90;;;;;;5164776;27;20226;-32
2021/04/22 10:19:14;;;;;;;10.30;7.10;;;9.50;99.90;;;;;;5164865;27;20198;-34
2021/04/22 10:21:44;;;;;;;9.88;6.05;;;9.60;99.90;;;;;;5165028;27;20186;-33
2021/04/22 10:24:15;;;;;;;14.43;6.70;;;9.60;99.90;;;;;;5165798;27;20186;-36
2021/04/22 10:26:57;;;;;;;12.57;6.30;;;9.40;99.90;;;;;;5164304;27;20509;-37
2021/04/22 10:29:27;;;;;;;12.43;7.82;;;9.50;99.90;;;;;;5165746;27;20202;-36
2021/04/22 10:31:59;;;;;;;10.60;6.20;;;9.40;99.90;;;;;;5163170;27;20199;-35
2021/04/22 10:34:31;;;;;;;8.15;6.38;;;9.40;99.90;;;;;;5160166;27;20267;-36
2021/04/22 10:37:01;;;;;;;7.88;6.15;;;9.50;99.90;;;;;;5163367;27;20202;-34
2021/04/22 10:39:31;;;;;;;13.98;7.90;;;9.50;99.90;;;;;;5165823;27;20243;-33
2021/04/22 10:42:05;;;;;;;13.02;6.22;;;9.40;99.90;;;;;;5163515;27;20212;-34
2021/04/22 10:44:38;;;;;;;9.50;6.03;;;9.30;99.90;;;;;;5165453;27;20310;-31
2021/04/22 10:47:08;;;;;;;11.85;6.47;;;9.30;99.90;;;;;;5164090;27;20614;-35
2021/04/22 10:49:39;;;;;;;8.43;6.13;;;9.40;99.90;;;;;;5165363;27;20203;-35
2021/04/22 10:52:10;;;;;;;7.70;5.97;;;9.30;99.90;;;;;;5164531;27;20202;-37
2021/04/22 10:54:40;;;;;;;8.70;5.80;;;9.30;99.90;;;;;;5160305;27;20191;-30
2021/04/22 10:57:13;;;;;;;10.55;5.55;;;9.30;99.90;;;;;;5163407;27;20218;-31
2021/04/22 10:59:44;;;;;;;10.60;6.50;;;9.30;99.90;;;;;;5164553;27;20298;-32
2021/04/22 11:02:26;;;;;;;10.80;7.40;;;9.20;99.90;;;;;;5164601;27;20199;-37
2021/04/22 11:04:56;;;;;;;7.97;6.45;;;9.20;99.90;;;;;;5151962;27;20230;-36
2021/04/22 11:07:27;;;;;;;9.95;5.93;;;9.00;99.90;;;;;;5158644;27;20207;-35
2021/04/22 11:10:00;;;;;;;10.48;6.53;;;9.00;99.90;;;;;;5156575;27;20194;-37
2021/04/22 11:12:32;;;;;;;10.68;5.47;;;9.10;99.90;;;;;;5159691;27;20304;-35
2021/04/22 11:15:03;;;;;;;9.38;6.00;;;9.10;99.90;;;;;;5162148;27;20218;-35
2021/04/22 11:17:38;;;;;;;9.50;5.63;;;9.00;99.90;;;;;;5163373;27;20278;-32
2021/04/22 11:20:17;;;;;;;11.63;6.32;;;8.90;99.90;;;;;;5147511;27;20216;-32
2021/04/22 11:22:50;;;;;;;10.90;6.57;;;9.00;99.90;;;;;;5161400;27;20258;-31
2021/04/22 11:25:22;;;;;;;8.30;6.00;;;9.00;99.90;;;;;;5156679;27;20198;-37
2021/04/22 11:27:54;;;;;;;10.48;7.25;;;8.90;99.90;;;;;;5159821;27;20278;-34
2021/04/22 11:30:30;;;;;;;12.45;6.88;;;8.80;99.90;;;;;;5150023;27;20227;-32
2021/04/22 11:33:01;;;;;;;11.63;6.78;;;8.70;99.90;;;;;;5167485;27;20197;-32
2021/04/22 11:35:32;;;;;;;10.82;6.82;;;8.80;99.90;;;;;;5168498;27;20206;-31
2021/04/22 11:38:07;;;;;;;16.55;7.38;;;8.80;99.90;;;;;;5167329;27;20202;-37
2021/04/22 11:40:42;;;;;;;13.07;7.28;;;8.80;99.90;;;;;;5169212;27;20194;-34
2021/04/22 11:43:22;;;;;;;9.52;6.72;;;8.80;99.90;;;;;;5167257;27;20285;-36
2021/04/22 11:45:54;;;;;;;9.07;6.25;;;8.70;99.90;;;;;;5165576;27;20537;-36
2021/04/22 11:48:24;;;;;;;12.77;6.45;;;8.60;99.90;;;;;;5168091;27;20198;-36
2021/04/22 11:50:55;;;;;;;10.15;6.72;;;8.50;99.90;;;;;;5168088;27;20629;-29
2021/04/22 11:53:34;;;;;;;9.00;5.97;;;8.50;99.90;;;;;;5166567;27;20198;-34
2021/04/22 11:56:06;;;;;;;10.32;7.15;;;8.60;99.90;;;;;;5168233;27;20583;-33
2021/04/22 11:58:38;;;;;;;8.15;6.40;;;8.70;99.90;;;;;;5167034;27;20266;-34
2021/04/22 12:01:09;;;;;;;11.18;6.43;;;8.60;99.90;;;;;;5167841;27;20278;-34
2021/04/22 12:03:41;;;;;;;10.48;7.05;;;8.60;99.90;;;;;;5167323;27;20194;-36
2021/04/22 12:06:14;;;;;;;9.65;7.13;;;8.60;99.90;;;;;;5167666;27;20271;-35
2021/04/22 12:08:46;;;;;;;12.23;6.22;;;8.50;99.90;;;;;;5167567;27;20206;-34
2021/04/22 12:11:19;;;;;;;11.25;6.97;;;8.50;99.90;;;;;;5167958;27;20190;-37
2021/04/22 12:13:50;;;;;;;10.13;6.35;;;8.50;99.90;;;;;;5168546;27;20197;-35
2021/04/22 12:16:21;;;;;;;16.67;6.45;;;8.50;99.90;;;;;;5167123;27;20229;-32
2021/04/22 12:18:53;;;;;;;9.25;6.30;;;8.40;99.90;;;;;;5168114;27;20203;-34
2021/04/22 12:21:25;;;;;;;14.57;7.65;;;8.40;99.90;;;;;;5166535;27;20271;-30
2021/04/22 12:23:59;;;;;;;12.88;7.55;;;8.50;99.90;;;;;;5168238;27;20198;-29
2021/04/22 12:26:32;;;;;;;10.55;6.75;;;8.50;99.90;;;;;;5166470;27;20201;-33
2021/04/22 12:29:05;;;;;;;9.98;6.28;;;8.50;99.90;;;;;;5167831;27;20243;-36
2021/04/22 12:31:41;;;;;;;9.40;5.72;;;8.60;99.90;;;;;;5167649;27;20251;-34
2021/04/22 12:34:13;;;;;;;9.98;6.30;;;8.70;99.90;;;;;;5167994;27;20198;-36
2021/04/22 12:36:54;;;;;;;9.35;6.60;;;8.80;99.90;;;;;;5167137;27;20310;-35
2021/04/22 12:39:27;;;;;;;11.88;6.18;;;8.90;99.90;;;;;;5166231;27;20227;-37
2021/04/22 12:42:19;;;;;;;10.38;6.85;;;9.00;99.90;;;;;;5166166;27;20205;-35
2021/04/22 12:44:58;;;;;;;11.40;7.40;;;9.00;99.90;;;;;;5160911;27;20198;-34
2021/04/22 12:47:39;;;;;;;11.70;7.13;;;9.10;99.90;;;;;;5159716;27;20206;-37
2021/04/22 12:50:12;;;;;;;10.43;6.95;;;9.20;99.90;;;;;;5167294;27;20302;-33
2021/04/22 12:52:44;;;;;;;9.27;7.00;;;9.30;99.90;;;;;;5159566;27;20202;-33
2021/04/22 12:55:16;;;;;;;14.25;6.50;;;9.30;99.90;;;;;;5166805;27;20214;-32
2021/04/22 12:57:53;;;;;;;10.63;6.55;;;9.30;99.90;;;;;;5158895;27;20709;-35
2021/04/22 13:00:32;;;;;;;10.93;6.50;;;9.40;99.90;;;;;;5166504;27;20214;-35
2021/04/22 13:03:14;;;;;;;13.20;7.40;;;9.50;99.90;;;;;;5167238;27;20282;-35
2021/04/22 13:05:47;;;;;;;13.43;6.88;;;9.60;99.90;;;;;;5167089;27;20207;-35
2021/04/22 13:08:17;;;;;;;12.65;7.40;;;9.70;99.90;;;;;;5164241;27;20194;-35